Middle Township, NJ

9:08 PM EDT on March 28, 2015 (GMT -0400)
Cape May Court House | | Change Station
CLOSE
Current Station
Personal Weather Station
Location: Middle Township, NJ
Elevation: 22 ft
Nearby Weather Stations

Elev 22 ft 39.07 °N, 74.84 °W | Updated 15 seconds ago

Overcast
Overcast
32.5 °F
Feels Like 32 °F
N
2.0
Wind Variable Wind from SW
Gusts 16.0 mph

Today
High -- | Low -- °F
--% Chance of Precip.
Yesterday
High -- | Low -- °F
Precip. -- in
6:50 AM 7:18 PM
Waxing Gibbous, 67% visible
Pressure 30.11 in
Visibility 10.0 miles
Clouds Few 4500 ft
Scattered Clouds 6000 ft
Mostly Cloudy 7000 ft
Windchill 32 °F
Dew Point 21 °F
Humidity 62%
Rainfall 0.00 in
Snow Depth Not available.
UV 0 out of 12
Pollen 8.00 out of 12
Air Quality Not available.
Flu Activity Not available.
METAR KWWD 290055Z AUTO 29015G23KT 10SM FEW045 SCT060 BKN070 00/M08 A3011 RMK AO1

More Conditions Fewer Conditions

Pressure 30.11 in
Visibility 10.0 miles
Clouds Few 4500 ft
Scattered Clouds 6000 ft
Mostly Cloudy 7000 ft
Windchill 32 °F
Dew Point 21 °F
Humidity 62%
Rainfall 0.00 in
Snow Depth Not available.
UV 0 out of 12
Pollen 8.00 out of 12
Air Quality Not available.
Flu Activity Not available.
METAR KWWD 290055Z AUTO 29015G23KT 10SM FEW045 SCT060 BKN070 00/M08 A3011 RMK AO1

More Conditions Fewer Conditions

Nowcast | as of 7:09 PM EDT on March 28, 2015

Isolated snow showers or flurries can be expected through the evening hours. No accumulation is expected. Northwest winds will continue to gust between 20 and 30 mph at times as temperatures continue to slowly drop.

×

10-Day Weather Forecast

Almanac

Astronomy

Mar. 28, 2015 Rise Set
Actual Time
Civil Twilight
Nautical Twilight
Astronomical Twilight
Moon
Length of Visible Light
Length of Day
Tomorrow will be .
, % of the Moon is Illuminated

Today's Extremes

State Highs State Lows

Community

WunderPhotos

Upload Photos

1,809,140 photos uploaded!

WunderBlogs® & News

Nearby

Air Quality

  Air Quality AQ Index Pollutant
Not available.

Snow Depth

Station Depth Elevation

Earthquake Activity

City Distance Mag. Time & Date
Minimum magnitude displayed is 2.5.

Coastal Water Temperatures

Place Temperature

Stations

Nearby Weather Stations

Station Location Temp. Windchill Dew Point Humidity Wind Precip. Elev Updated Type